sensor_id;sensor_type;location;lat;lon;timestamp;temperature;humidity
6443;DHT22;3254;47.372;8.512;2023-05-10T00:00:47;11.80;99.90
6443;DHT22;3254;47.372;8.512;2023-05-10T00:03:13;11.80;99.90
6443;DHT22;3254;47.372;8.512;2023-05-10T00:05:38;11.80;99.90
6443;DHT22;3254;47.372;8.512;2023-05-10T00:08:04;11.80;99.90
6443;DHT22;3254;47.372;8.512;2023-05-10T00:10:29;11.80;99.90
6443;DHT22;3254;47.372;8.512;2023-05-10T00:12:55;11.80;99.90
6443;DHT22;3254;47.372;8.512;2023-05-10T00:15:21;11.80;99.90
6443;DHT22;3254;47.372;8.512;2023-05-10T00:17:46;11.90;99.90
6443;DHT22;3254;47.372;8.512;2023-05-10T00:20:12;11.90;99.90
6443;DHT22;3254;47.372;8.512;2023-05-10T00:22:37;11.90;99.90
6443;DHT22;3254;47.372;8.512;2023-05-10T00:25:03;11.80;99.90
6443;DHT22;3254;47.372;8.512;2023-05-10T00:27:29;11.80;99.90
6443;DHT22;3254;47.372;8.512;2023-05-10T00:29:54;11.80;99.90
6443;DHT22;3254;47.372;8.512;2023-05-10T00:32:20;11.70;99.90
6443;DHT22;3254;47.372;8.512;2023-05-10T00:34:45;11.80;99.90
6443;DHT22;3254;47.372;8.512;2023-05-10T00:37:11;11.70;99.90
6443;DHT22;3254;47.372;8.512;2023-05-10T00:39:37;11.70;99.90
6443;DHT22;3254;47.372;8.512;2023-05-10T00:42:02;11.70;99.90
6443;DHT22;3254;47.372;8.512;2023-05-10T00:44:29;11.70;99.90
6443;DHT22;3254;47.372;8.512;2023-05-10T00:46:56;11.70;99.90
6443;DHT22;3254;47.372;8.512;2023-05-10T00:49:22;11.80;99.90
6443;DHT22;3254;47.372;8.512;2023-05-10T00:51:48;11.80;99.90
6443;DHT22;3254;47.372;8.512;2023-05-10T00:54:15;11.80;99.90
6443;DHT22;3254;47.372;8.512;2023-05-10T00:56:41;11.90;99.90
6443;DHT22;3254;47.372;8.512;2023-05-10T00:59:08;11.90;99.90
6443;DHT22;3254;47.372;8.512;2023-05-10T01:01:35;11.90;99.90
6443;DHT22;3254;47.372;8.512;2023-05-10T01:04:01;11.90;99.90
6443;DHT22;3254;47.372;8.512;2023-05-10T01:06:26;11.90;99.90
6443;DHT22;3254;47.372;8.512;2023-05-10T01:08:53;11.90;99.90
6443;DHT22;3254;47.372;8.512;2023-05-10T01:11:18;11.90;99.90
6443;DHT22;3254;47.372;8.512;2023-05-10T01:13:47;12.00;99.90
6443;DHT22;3254;47.372;8.512;2023-05-10T01:16:14;12.00;99.90
6443;DHT22;3254;47.372;8.512;2023-05-10T01:18:40;12.00;99.90
6443;DHT22;3254;47.372;8.512;2023-05-10T01:21:30;12.00;99.90
6443;DHT22;3254;47.372;8.512;2023-05-10T01:27:17;12.10;99.90
6443;DHT22;3254;47.372;8.512;2023-05-10T01:32:39;12.10;99.90
6443;DHT22;3254;47.372;8.512;2023-05-10T01:35:14;12.10;99.90
6443;DHT22;3254;47.372;8.512;2023-05-10T01:38:07;12.20;99.90
6443;DHT22;3254;47.372;8.512;2023-05-10T01:40:39;12.20;99.90
6443;DHT22;3254;47.372;8.512;2023-05-10T01:43:13;12.20;99.90
6443;DHT22;3254;47.372;8.512;2023-05-10T01:45:54;12.10;99.90
6443;DHT22;3254;47.372;8.512;2023-05-10T01:48:24;12.10;99.90
6443;DHT22;3254;47.372;8.512;2023-05-10T01:50:52;12.00;99.90
6443;DHT22;3254;47.372;8.512;2023-05-10T01:53:19;12.00;99.90
6443;DHT22;3254;47.372;8.512;2023-05-10T01:55:48;12.00;99.90
6443;DHT22;3254;47.372;8.512;2023-05-10T01:58:25;12.00;99.90
6443;DHT22;3254;47.372;8.512;2023-05-10T02:00:52;12.00;99.90
6443;DHT22;3254;47.372;8.512;2023-05-10T02:03:22;12.10;99.90
6443;DHT22;3254;47.372;8.512;2023-05-10T02:05:49;12.00;99.90
6443;DHT22;3254;47.372;8.512;2023-05-10T02:08:16;12.00;99.90
6443;DHT22;3254;47.372;8.512;2023-05-10T02:10:43;12.00;99.90
6443;DHT22;3254;47.372;8.512;2023-05-10T02:13:11;12.00;99.90
6443;DHT22;3254;47.372;8.512;2023-05-10T02:15:38;11.80;99.90
6443;DHT22;3254;47.372;8.512;2023-05-10T02:18:05;11.60;99.90
6443;DHT22;3254;47.372;8.512;2023-05-10T02:20:32;11.50;99.90
6443;DHT22;3254;47.372;8.512;2023-05-10T02:22:58;11.60;99.90
6443;DHT22;3254;47.372;8.512;2023-05-10T02:25:25;11.50;99.90
6443;DHT22;3254;47.372;8.512;2023-05-10T02:27:54;11.50;99.90
6443;DHT22;3254;47.372;8.512;2023-05-10T02:30:21;11.60;99.90
6443;DHT22;3254;47.372;8.512;2023-05-10T02:32:49;11.60;99.90
6443;DHT22;3254;47.372;8.512;2023-05-10T02:35:15;11.50;99.90
6443;DHT22;3254;47.372;8.512;2023-05-10T02:37:42;11.70;99.90
6443;DHT22;3254;47.372;8.512;2023-05-10T02:40:09;11.60;99.90
6443;DHT22;3254;47.372;8.512;2023-05-10T02:42:37;11.60;99.90
6443;DHT22;3254;47.372;8.512;2023-05-10T02:45:10;11.70;99.90
6443;DHT22;3254;47.372;8.512;2023-05-10T02:47:36;11.70;99.90
6443;DHT22;3254;47.372;8.512;2023-05-10T02:50:03;11.60;99.90
6443;DHT22;3254;47.372;8.512;2023-05-10T02:52:39;11.70;99.90
6443;DHT22;3254;47.372;8.512;2023-05-10T02:55:05;11.60;99.90
6443;DHT22;3254;47.372;8.512;2023-05-10T02:57:35;11.60;99.90
6443;DHT22;3254;47.372;8.512;2023-05-10T03:00:04;11.60;99.90
6443;DHT22;3254;47.372;8.512;2023-05-10T03:02:30;11.60;99.90
6443;DHT22;3254;47.372;8.512;2023-05-10T03:04:56;11.70;99.90
6443;DHT22;3254;47.372;8.512;2023-05-10T03:07:22;11.60;99.90
6443;DHT22;3254;47.372;8.512;2023-05-10T03:09:51;11.60;99.90
6443;DHT22;3254;47.372;8.512;2023-05-10T03:12:33;11.70;99.90
6443;DHT22;3254;47.372;8.512;2023-05-10T03:18:07;11.70;99.90
6443;DHT22;3254;47.372;8.512;2023-05-10T03:20:55;11.70;99.90
6443;DHT22;3254;47.372;8.512;2023-05-10T03:23:27;11.70;99.90
6443;DHT22;3254;47.372;8.512;2023-05-10T03:25:55;11.70;99.90
6443;DHT22;3254;47.372;8.512;2023-05-10T03:28:24;11.70;99.90
6443;DHT22;3254;47.372;8.512;2023-05-10T03:30:52;11.70;99.90
6443;DHT22;3254;47.372;8.512;2023-05-10T03:33:18;11.70;99.90
6443;DHT22;3254;47.372;8.512;2023-05-10T03:35:43;11.60;99.90
6443;DHT22;3254;47.372;8.512;2023-05-10T03:38:14;11.70;99.90
6443;DHT22;3254;47.372;8.512;2023-05-10T03:40:39;11.60;99.90
6443;DHT22;3254;47.372;8.512;2023-05-10T03:43:05;11.60;99.90
6443;DHT22;3254;47.372;8.512;2023-05-10T03:45:31;11.60;99.90
6443;DHT22;3254;47.372;8.512;2023-05-10T03:47:57;11.70;99.90
6443;DHT22;3254;47.372;8.512;2023-05-10T03:50:23;11.70;99.90
6443;DHT22;3254;47.372;8.512;2023-05-10T03:52:48;11.70;99.90
6443;DHT22;3254;47.372;8.512;2023-05-10T03:55:14;11.70;99.90
6443;DHT22;3254;47.372;8.512;2023-05-10T03:57:40;11.70;99.90
6443;DHT22;3254;47.372;8.512;2023-05-10T04:00:06;11.70;99.90
6443;DHT22;3254;47.372;8.512;2023-05-10T04:02:32;11.70;99.90
6443;DHT22;3254;47.372;8.512;2023-05-10T04:04:57;11.70;99.90
6443;DHT22;3254;47.372;8.512;2023-05-10T04:07:23;11.60;99.90
6443;DHT22;3254;47.372;8.512;2023-05-10T04:09:48;11.70;99.90
6443;DHT22;3254;47.372;8.512;2023-05-10T04:12:14;11.70;99.90
6443;DHT22;3254;47.372;8.512;2023-05-10T04:14:39;11.70;99.90
6443;DHT22;3254;47.372;8.512;2023-05-10T04:17:05;11.50;99.90
6443;DHT22;3254;47.372;8.512;2023-05-10T04:19:31;11.40;99.90
6443;DHT22;3254;47.372;8.512;2023-05-10T04:21:57;11.30;99.90
6443;DHT22;3254;47.372;8.512;2023-05-10T04:24:23;11.30;99.90
6443;DHT22;3254;47.372;8.512;2023-05-10T04:26:48;11.30;99.90
6443;DHT22;3254;47.372;8.512;2023-05-10T04:29:14;11.20;99.90
6443;DHT22;3254;47.372;8.512;2023-05-10T04:31:39;11.20;99.90
6443;DHT22;3254;47.372;8.512;2023-05-10T04:34:05;11.30;99.90
6443;DHT22;3254;47.372;8.512;2023-05-10T04:36:30;11.20;99.90
6443;DHT22;3254;47.372;8.512;2023-05-10T04:38:59;11.30;99.90
6443;DHT22;3254;47.372;8.512;2023-05-10T04:41:24;11.30;99.90
6443;DHT22;3254;47.372;8.512;2023-05-10T04:43:50;11.30;99.90
6443;DHT22;3254;47.372;8.512;2023-05-10T04:46:16;11.30;99.90
6443;DHT22;3254;47.372;8.512;2023-05-10T04:48:41;11.20;99.90
6443;DHT22;3254;47.372;8.512;2023-05-10T04:51:07;11.20;99.90
6443;DHT22;3254;47.372;8.512;2023-05-10T04:53:33;11.20;99.90
6443;DHT22;3254;47.372;8.512;2023-05-10T04:55:58;11.20;99.90
6443;DHT22;3254;47.372;8.512;2023-05-10T04:58:24;11.20;99.90
6443;DHT22;3254;47.372;8.512;2023-05-10T05:00:49;11.20;99.90
6443;DHT22;3254;47.372;8.512;2023-05-10T05:03:15;11.30;99.90
6443;DHT22;3254;47.372;8.512;2023-05-10T05:05:40;11.30;99.90
6443;DHT22;3254;47.372;8.512;2023-05-10T05:08:06;11.20;99.90
6443;DHT22;3254;47.372;8.512;2023-05-10T05:10:32;11.30;99.90
6443;DHT22;3254;47.372;8.512;2023-05-10T05:12:57;11.30;99.90
6443;DHT22;3254;47.372;8.512;2023-05-10T05:15:23;11.30;99.90
6443;DHT22;3254;47.372;8.512;2023-05-10T05:17:48;11.40;99.90
6443;DHT22;3254;47.372;8.512;2023-05-10T05:20:14;11.40;99.90
6443;DHT22;3254;47.372;8.512;2023-05-10T05:22:39;11.40;99.90
6443;DHT22;3254;47.372;8.512;2023-05-10T05:25:05;11.50;99.90
6443;DHT22;3254;47.372;8.512;2023-05-10T05:27:31;11.50;99.90
6443;DHT22;3254;47.372;8.512;2023-05-10T05:29:57;11.50;99.90
6443;DHT22;3254;47.372;8.512;2023-05-10T05:32:24;11.50;99.90
6443;DHT22;3254;47.372;8.512;2023-05-10T05:34:50;11.60;99.90
6443;DHT22;3254;47.372;8.512;2023-05-10T05:37:17;11.60;99.90
6443;DHT22;3254;47.372;8.512;2023-05-10T05:39:43;11.60;99.90
6443;DHT22;3254;47.372;8.512;2023-05-10T05:42:09;11.60;99.90
6443;DHT22;3254;47.372;8.512;2023-05-10T05:44:35;11.70;99.90
6443;DHT22;3254;47.372;8.512;2023-05-10T05:47:00;11.70;99.90
6443;DHT22;3254;47.372;8.512;2023-05-10T05:49:26;11.70;99.90
6443;DHT22;3254;47.372;8.512;2023-05-10T05:51:51;11.70;99.90
6443;DHT22;3254;47.372;8.512;2023-05-10T05:54:17;11.70;99.90
6443;DHT22;3254;47.372;8.512;2023-05-10T05:56:43;11.70;99.90
6443;DHT22;3254;47.372;8.512;2023-05-10T05:59:10;11.70;99.90
6443;DHT22;3254;47.372;8.512;2023-05-10T06:01:35;11.80;99.90
6443;DHT22;3254;47.372;8.512;2023-05-10T06:04:01;11.80;94.00
6443;DHT22;3254;47.372;8.512;2023-05-10T06:06:27;11.90;92.50
6443;DHT22;3254;47.372;8.512;2023-05-10T06:08:53;11.90;95.40
6443;DHT22;3254;47.372;8.512;2023-05-10T06:11:18;12.00;93.30
6443;DHT22;3254;47.372;8.512;2023-05-10T06:13:44;12.00;94.00
6443;DHT22;3254;47.372;8.512;2023-05-10T06:16:09;12.10;91.80
6443;DHT22;3254;47.372;8.512;2023-05-10T06:18:35;12.10;94.70
6443;DHT22;3254;47.372;8.512;2023-05-10T06:21:01;12.00;94.00
6443;DHT22;3254;47.372;8.512;2023-05-10T06:23:26;11.90;96.80
6443;DHT22;3254;47.372;8.512;2023-05-10T06:25:52;11.40;99.90
6443;DHT22;3254;47.372;8.512;2023-05-10T06:28:18;11.20;99.90
6443;DHT22;3254;47.372;8.512;2023-05-10T06:30:43;11.10;99.90
6443;DHT22;3254;47.372;8.512;2023-05-10T06:33:09;11.10;99.90
6443;DHT22;3254;47.372;8.512;2023-05-10T06:35:35;11.10;99.90
6443;DHT22;3254;47.372;8.512;2023-05-10T06:38:02;11.20;99.90
6443;DHT22;3254;47.372;8.512;2023-05-10T06:40:27;11.20;99.90
6443;DHT22;3254;47.372;8.512;2023-05-10T06:42:53;11.20;99.90
6443;DHT22;3254;47.372;8.512;2023-05-10T06:45:18;11.30;99.90
6443;DHT22;3254;47.372;8.512;2023-05-10T06:47:44;11.30;99.90
6443;DHT22;3254;47.372;8.512;2023-05-10T06:50:10;11.40;99.90
6443;DHT22;3254;47.372;8.512;2023-05-10T06:52:36;11.40;99.90
6443;DHT22;3254;47.372;8.512;2023-05-10T06:55:03;11.50;99.90
6443;DHT22;3254;47.372;8.512;2023-05-10T06:57:29;11.50;99.90
6443;DHT22;3254;47.372;8.512;2023-05-10T06:59:54;11.60;99.90
6443;DHT22;3254;47.372;8.512;2023-05-10T07:02:21;11.60;99.90
6443;DHT22;3254;47.372;8.512;2023-05-10T07:04:48;11.80;99.90
6443;DHT22;3254;47.372;8.512;2023-05-10T07:07:14;11.80;99.90
6443;DHT22;3254;47.372;8.512;2023-05-10T07:09:40;11.90;99.90
6443;DHT22;3254;47.372;8.512;2023-05-10T07:12:05;12.00;99.90
6443;DHT22;3254;47.372;8.512;2023-05-10T07:14:31;12.10;99.90
6443;DHT22;3254;47.372;8.512;2023-05-10T07:16:56;12.20;99.90
6443;DHT22;3254;47.372;8.512;2023-05-10T07:19:22;12.30;99.90
6443;DHT22;3254;47.372;8.512;2023-05-10T07:21:48;12.40;99.90
6443;DHT22;3254;47.372;8.512;2023-05-10T07:24:14;12.40;98.90
6443;DHT22;3254;47.372;8.512;2023-05-10T07:26:39;12.50;92.50
6443;DHT22;3254;47.372;8.512;2023-05-10T07:29:05;12.60;87.40
6443;DHT22;3254;47.372;8.512;2023-05-10T07:31:30;12.60;74.60
6443;DHT22;3254;47.372;8.512;2023-05-10T07:33:56;12.50;68.90
6443;DHT22;3254;47.372;8.512;2023-05-10T07:36:22;12.40;68.80
6443;DHT22;3254;47.372;8.512;2023-05-10T07:38:47;12.40;63.90
6443;DHT22;3254;47.372;8.512;2023-05-10T07:41:14;12.20;61.90
6443;DHT22;3254;47.372;8.512;2023-05-10T07:43:40;12.20;59.00
6443;DHT22;3254;47.372;8.512;2023-05-10T07:46:05;12.20;58.30
6443;DHT22;3254;47.372;8.512;2023-05-10T07:48:31;12.10;61.90
6443;DHT22;3254;47.372;8.512;2023-05-10T07:50:57;11.90;63.90
6443;DHT22;3254;47.372;8.512;2023-05-10T07:53:22;11.70;87.60
6443;DHT22;3254;47.372;8.512;2023-05-10T07:55:51;11.60;95.70
6443;DHT22;3254;47.372;8.512;2023-05-10T07:58:17;11.60;99.30
6443;DHT22;3254;47.372;8.512;2023-05-10T08:00:42;11.70;97.10
6443;DHT22;3254;47.372;8.512;2023-05-10T08:03:08;11.80;95.70
6443;DHT22;3254;47.372;8.512;2023-05-10T08:05:33;11.80;91.90
6443;DHT22;3254;47.372;8.512;2023-05-10T08:07:59;11.90;81.20
6443;DHT22;3254;47.372;8.512;2023-05-10T08:10:25;11.80;87.60
6443;DHT22;3254;47.372;8.512;2023-05-10T08:12:51;12.00;87.10
6443;DHT22;3254;47.372;8.512;2023-05-10T08:15:16;12.10;77.90
6443;DHT22;3254;47.372;8.512;2023-05-10T08:17:42;12.10;64.00
6443;DHT22;3254;47.372;8.512;2023-05-10T08:20:08;12.10;67.50
6443;DHT22;3254;47.372;8.512;2023-05-10T08:22:34;12.20;67.50
6443;DHT22;3254;47.372;8.512;2023-05-10T08:25:00;12.40;68.20
6443;DHT22;3254;47.372;8.512;2023-05-10T08:27:25;12.50;54.40
6443;DHT22;3254;47.372;8.512;2023-05-10T08:29:51;12.60;54.90
6443;DHT22;3254;47.372;8.512;2023-05-10T08:32:17;12.90;56.90
6443;DHT22;3254;47.372;8.512;2023-05-10T08:34:42;13.10;43.30
6443;DHT22;3254;47.372;8.512;2023-05-10T08:37:08;13.10;40.60
6443;DHT22;3254;47.372;8.512;2023-05-10T08:39:35;13.20;28.00
6443;DHT22;3254;47.372;8.512;2023-05-10T08:42:02;13.30;27.70
6443;DHT22;3254;47.372;8.512;2023-05-10T08:44:32;13.50;22.20
6443;DHT22;3254;47.372;8.512;2023-05-10T08:46:59;13.90;11.40
6443;DHT22;3254;47.372;8.512;2023-05-10T08:49:27;14.00;9.00
6443;DHT22;3254;47.372;8.512;2023-05-10T08:51:57;14.30;6.30
6443;DHT22;3254;47.372;8.512;2023-05-10T08:54:24;14.50;1.00
6443;DHT22;3254;47.372;8.512;2023-05-10T08:56:50;14.80;1.00
6443;DHT22;3254;47.372;8.512;2023-05-10T08:59:16;14.90;1.00
6443;DHT22;3254;47.372;8.512;2023-05-10T09:01:44;15.10;1.00
6443;DHT22;3254;47.372;8.512;2023-05-10T09:04:10;15.00;1.00
6443;DHT22;3254;47.372;8.512;2023-05-10T09:06:37;14.80;1.00
6443;DHT22;3254;47.372;8.512;2023-05-10T09:09:03;14.70;1.00
6443;DHT22;3254;47.372;8.512;2023-05-10T09:11:29;14.40;1.00
6443;DHT22;3254;47.372;8.512;2023-05-10T09:13:55;14.10;1.00
6443;DHT22;3254;47.372;8.512;2023-05-10T09:16:22;14.00;1.00
6443;DHT22;3254;47.372;8.512;2023-05-10T09:18:48;14.00;1.00
6443;DHT22;3254;47.372;8.512;2023-05-10T09:21:14;14.20;1.00
6443;DHT22;3254;47.372;8.512;2023-05-10T09:23:46;14.40;1.00
6443;DHT22;3254;47.372;8.512;2023-05-10T09:26:12;14.30;1.00
6443;DHT22;3254;47.372;8.512;2023-05-10T09:28:57;14.60;1.00
6443;DHT22;3254;47.372;8.512;2023-05-10T09:31:23;14.60;1.00
6443;DHT22;3254;47.372;8.512;2023-05-10T09:33:50;14.50;1.00
6443;DHT22;3254;47.372;8.512;2023-05-10T09:36:17;14.50;1.00
6443;DHT22;3254;47.372;8.512;2023-05-10T09:38:50;14.50;1.00
6443;DHT22;3254;47.372;8.512;2023-05-10T09:41:18;14.40;1.00
6443;DHT22;3254;47.372;8.512;2023-05-10T09:43:44;14.60;1.00
6443;DHT22;3254;47.372;8.512;2023-05-10T09:46:10;14.60;1.00
6443;DHT22;3254;47.372;8.512;2023-05-10T09:48:50;14.50;1.00
6443;DHT22;3254;47.372;8.512;2023-05-10T09:51:20;14.30;1.00
6443;DHT22;3254;47.372;8.512;2023-05-10T09:53:46;14.30;1.00
6443;DHT22;3254;47.372;8.512;2023-05-10T09:56:11;14.50;1.00
6443;DHT22;3254;47.372;8.512;2023-05-10T09:58:37;14.80;1.00
6443;DHT22;3254;47.372;8.512;2023-05-10T10:01:11;15.10;1.00
6443;DHT22;3254;47.372;8.512;2023-05-10T10:03:42;15.20;1.00
6443;DHT22;3254;47.372;8.512;2023-05-10T10:06:08;14.90;1.00
6443;DHT22;3254;47.372;8.512;2023-05-10T10:08:34;14.70;1.00
6443;DHT22;3254;47.372;8.512;2023-05-10T10:11:00;14.60;1.00
6443;DHT22;3254;47.372;8.512;2023-05-10T10:13:27;14.60;1.00
6443;DHT22;3254;47.372;8.512;2023-05-10T10:15:54;14.80;1.00
6443;DHT22;3254;47.372;8.512;2023-05-10T10:18:20;15.10;1.00
6443;DHT22;3254;47.372;8.512;2023-05-10T10:20:53;14.90;1.00
6443;DHT22;3254;47.372;8.512;2023-05-10T10:23:19;15.00;1.00
6443;DHT22;3254;47.372;8.512;2023-05-10T10:25:45;15.00;1.00
6443;DHT22;3254;47.372;8.512;2023-05-10T10:28:32;14.90;1.00
6443;DHT22;3254;47.372;8.512;2023-05-10T10:31:17;15.20;1.00
6443;DHT22;3254;47.372;8.512;2023-05-10T10:34:08;15.40;1.00
6443;DHT22;3254;47.372;8.512;2023-05-10T10:36:47;15.60;1.00
6443;DHT22;3254;47.372;8.512;2023-05-10T10:39:14;15.90;1.00
6443;DHT22;3254;47.372;8.512;2023-05-10T10:41:52;15.60;1.00
6443;DHT22;3254;47.372;8.512;2023-05-10T10:52:25;17.30;1.00
6443;DHT22;3254;47.372;8.512;2023-05-10T10:55:06;18.10;1.00
6443;DHT22;3254;47.372;8.512;2023-05-10T10:57:42;18.70;1.00
6443;DHT22;3254;47.372;8.512;2023-05-10T11:00:35;18.50;1.00
6443;DHT22;3254;47.372;8.512;2023-05-10T11:03:11;18.50;1.00
6443;DHT22;3254;47.372;8.512;2023-05-10T11:05:48;18.70;1.00
6443;DHT22;3254;47.372;8.512;2023-05-10T11:08:26;18.20;1.00
6443;DHT22;3254;47.372;8.512;2023-05-10T11:13:38;17.30;1.00
6443;DHT22;3254;47.372;8.512;2023-05-10T11:16:12;16.40;1.00
6443;DHT22;3254;47.372;8.512;2023-05-10T11:18:38;16.10;1.00
6443;DHT22;3254;47.372;8.512;2023-05-10T11:21:04;15.80;1.00
6443;DHT22;3254;47.372;8.512;2023-05-10T11:23:54;15.50;1.00
6443;DHT22;3254;47.372;8.512;2023-05-10T11:26:22;15.20;1.00
6443;DHT22;3254;47.372;8.512;2023-05-10T11:28:49;15.10;1.00
6443;DHT22;3254;47.372;8.512;2023-05-10T11:31:15;15.30;1.00
6443;DHT22;3254;47.372;8.512;2023-05-10T11:33:46;15.40;1.00
6443;DHT22;3254;47.372;8.512;2023-05-10T11:36:14;15.70;1.00
6443;DHT22;3254;47.372;8.512;2023-05-10T11:38:40;16.50;1.00
6443;DHT22;3254;47.372;8.512;2023-05-10T11:41:08;17.10;1.00
6443;DHT22;3254;47.372;8.512;2023-05-10T11:43:34;17.40;1.00
6443;DHT22;3254;47.372;8.512;2023-05-10T11:46:00;17.60;1.00
6443;DHT22;3254;47.372;8.512;2023-05-10T11:48:26;17.70;1.00
6443;DHT22;3254;47.372;8.512;2023-05-10T11:50:51;17.20;1.00
6443;DHT22;3254;47.372;8.512;2023-05-10T11:53:19;16.70;1.00
6443;DHT22;3254;47.372;8.512;2023-05-10T11:55:45;16.40;1.00
6443;DHT22;3254;47.372;8.512;2023-05-10T11:58:11;16.10;1.00
6443;DHT22;3254;47.372;8.512;2023-05-10T12:00:37;15.90;1.00
6443;DHT22;3254;47.372;8.512;2023-05-10T12:03:03;15.70;1.00
6443;DHT22;3254;47.372;8.512;2023-05-10T12:05:32;15.90;1.00
6443;DHT22;3254;47.372;8.512;2023-05-10T12:08:24;16.10;1.00
6443;DHT22;3254;47.372;8.512;2023-05-10T12:10:50;16.20;1.00
6443;DHT22;3254;47.372;8.512;2023-05-10T12:13:17;16.20;1.00
6443;DHT22;3254;47.372;8.512;2023-05-10T12:15:43;16.30;1.00
6443;DHT22;3254;47.372;8.512;2023-05-10T12:18:09;16.70;1.00
6443;DHT22;3254;47.372;8.512;2023-05-10T12:20:36;17.20;1.00
6443;DHT22;3254;47.372;8.512;2023-05-10T12:23:02;16.70;1.00
6443;DHT22;3254;47.372;8.512;2023-05-10T12:25:33;16.50;1.00
6443;DHT22;3254;47.372;8.512;2023-05-10T12:28:02;16.30;1.00
6443;DHT22;3254;47.372;8.512;2023-05-10T12:30:29;15.60;1.00
6443;DHT22;3254;47.372;8.512;2023-05-10T12:33:07;15.30;1.00
6443;DHT22;3254;47.372;8.512;2023-05-10T12:35:33;15.40;1.00
6443;DHT22;3254;47.372;8.512;2023-05-10T12:37:59;15.50;1.00
6443;DHT22;3254;47.372;8.512;2023-05-10T12:40:25;15.70;1.00
6443;DHT22;3254;47.372;8.512;2023-05-10T12:42:51;16.30;1.00
6443;DHT22;3254;47.372;8.512;2023-05-10T12:45:18;16.70;1.00
6443;DHT22;3254;47.372;8.512;2023-05-10T12:47:43;17.30;1.00
6443;DHT22;3254;47.372;8.512;2023-05-10T12:50:09;17.50;1.00
6443;DHT22;3254;47.372;8.512;2023-05-10T12:52:35;17.60;1.00
6443;DHT22;3254;47.372;8.512;2023-05-10T12:55:01;17.40;1.00
6443;DHT22;3254;47.372;8.512;2023-05-10T12:57:27;16.70;1.00
6443;DHT22;3254;47.372;8.512;2023-05-10T12:59:53;16.80;1.00
6443;DHT22;3254;47.372;8.512;2023-05-10T13:02:19;17.10;1.00
6443;DHT22;3254;47.372;8.512;2023-05-10T13:04:45;17.50;1.00
6443;DHT22;3254;47.372;8.512;2023-05-10T13:07:11;17.60;1.00
6443;DHT22;3254;47.372;8.512;2023-05-10T13:09:37;18.00;1.00
6443;DHT22;3254;47.372;8.512;2023-05-10T13:12:03;18.40;1.00
6443;DHT22;3254;47.372;8.512;2023-05-10T13:14:29;18.60;1.00
6443;DHT22;3254;47.372;8.512;2023-05-10T13:16:55;17.60;1.00
6443;DHT22;3254;47.372;8.512;2023-05-10T13:19:20;16.60;1.00
6443;DHT22;3254;47.372;8.512;2023-05-10T13:21:46;15.90;1.00
6443;DHT22;3254;47.372;8.512;2023-05-10T13:24:11;15.50;1.00
6443;DHT22;3254;47.372;8.512;2023-05-10T13:26:39;15.60;1.00
6443;DHT22;3254;47.372;8.512;2023-05-10T13:29:06;15.50;1.00
6443;DHT22;3254;47.372;8.512;2023-05-10T13:31:31;15.60;1.00
6443;DHT22;3254;47.372;8.512;2023-05-10T13:33:57;16.00;1.00
6443;DHT22;3254;47.372;8.512;2023-05-10T13:36:23;16.30;1.00
6443;DHT22;3254;47.372;8.512;2023-05-10T13:38:48;16.50;1.00
6443;DHT22;3254;47.372;8.512;2023-05-10T13:41:14;16.60;1.00
6443;DHT22;3254;47.372;8.512;2023-05-10T13:43:39;16.70;1.00
6443;DHT22;3254;47.372;8.512;2023-05-10T13:46:05;16.60;1.00
6443;DHT22;3254;47.372;8.512;2023-05-10T13:48:31;16.40;1.00
6443;DHT22;3254;47.372;8.512;2023-05-10T13:50:56;15.90;1.00
6443;DHT22;3254;47.372;8.512;2023-05-10T13:53:22;15.60;1.00
6443;DHT22;3254;47.372;8.512;2023-05-10T13:55:48;15.50;1.00
6443;DHT22;3254;47.372;8.512;2023-05-10T13:58:13;15.00;1.00
6443;DHT22;3254;47.372;8.512;2023-05-10T14:00:39;14.00;1.00
6443;DHT22;3254;47.372;8.512;2023-05-10T14:03:05;12.70;58.80
6443;DHT22;3254;47.372;8.512;2023-05-10T14:05:31;12.20;99.90
6443;DHT22;3254;47.372;8.512;2023-05-10T14:07:57;12.10;99.90
6443;DHT22;3254;47.372;8.512;2023-05-10T14:10:22;12.10;99.90
6443;DHT22;3254;47.372;8.512;2023-05-10T14:12:49;12.10;99.90
6443;DHT22;3254;47.372;8.512;2023-05-10T14:15:14;12.20;99.90
6443;DHT22;3254;47.372;8.512;2023-05-10T14:17:40;12.40;99.90
6443;DHT22;3254;47.372;8.512;2023-05-10T14:20:06;12.40;99.90
6443;DHT22;3254;47.372;8.512;2023-05-10T14:22:32;12.50;99.90
6443;DHT22;3254;47.372;8.512;2023-05-10T14:24:58;12.60;99.90
6443;DHT22;3254;47.372;8.512;2023-05-10T14:27:24;13.00;99.90
6443;DHT22;3254;47.372;8.512;2023-05-10T14:29:49;13.20;99.90
6443;DHT22;3254;47.372;8.512;2023-05-10T14:32:15;13.40;99.90
6443;DHT22;3254;47.372;8.512;2023-05-10T14:34:40;13.60;93.80
6443;DHT22;3254;47.372;8.512;2023-05-10T14:37:06;14.40;82.70
6443;DHT22;3254;47.372;8.512;2023-05-10T14:39:32;14.90;35.80
6443;DHT22;3254;47.372;8.512;2023-05-10T14:41:58;15.40;24.00
6443;DHT22;3254;47.372;8.512;2023-05-10T14:44:24;15.90;15.20
6443;DHT22;3254;47.372;8.512;2023-05-10T14:46:50;16.30;1.00
6443;DHT22;3254;47.372;8.512;2023-05-10T14:49:16;16.40;1.00
6443;DHT22;3254;47.372;8.512;2023-05-10T14:51:42;16.40;1.00
6443;DHT22;3254;47.372;8.512;2023-05-10T14:54:08;16.20;1.00
6443;DHT22;3254;47.372;8.512;2023-05-10T14:56:33;15.60;1.00
6443;DHT22;3254;47.372;8.512;2023-05-10T14:58:59;15.30;1.00
6443;DHT22;3254;47.372;8.512;2023-05-10T15:01:25;15.20;1.00
6443;DHT22;3254;47.372;8.512;2023-05-10T15:03:51;15.10;1.00
6443;DHT22;3254;47.372;8.512;2023-05-10T15:06:16;15.10;1.00
6443;DHT22;3254;47.372;8.512;2023-05-10T15:08:42;15.00;1.00
6443;DHT22;3254;47.372;8.512;2023-05-10T15:11:08;14.90;1.00
6443;DHT22;3254;47.372;8.512;2023-05-10T15:13:34;14.70;1.00
6443;DHT22;3254;47.372;8.512;2023-05-10T15:15:59;14.40;1.00
6443;DHT22;3254;47.372;8.512;2023-05-10T15:18:25;14.30;1.00
6443;DHT22;3254;47.372;8.512;2023-05-10T15:20:51;13.60;1.00
6443;DHT22;3254;47.372;8.512;2023-05-10T15:23:17;13.00;11.90
6443;DHT22;3254;47.372;8.512;2023-05-10T15:25:42;12.10;87.70
6443;DHT22;3254;47.372;8.512;2023-05-10T15:28:08;11.80;99.90
6443;DHT22;3254;47.372;8.512;2023-05-10T15:30:33;11.40;98.50
6443;DHT22;3254;47.372;8.512;2023-05-10T15:32:59;11.50;99.90
6443;DHT22;3254;47.372;8.512;2023-05-10T15:35:26;11.40;91.90
6443;DHT22;3254;47.372;8.512;2023-05-10T15:37:51;11.10;98.10
6443;DHT22;3254;47.372;8.512;2023-05-10T15:40:17;11.10;99.90
6443;DHT22;3254;47.372;8.512;2023-05-10T15:42:42;11.10;99.90
6443;DHT22;3254;47.372;8.512;2023-05-10T15:45:08;11.20;99.90
6443;DHT22;3254;47.372;8.512;2023-05-10T15:47:34;11.20;99.90
6443;DHT22;3254;47.372;8.512;2023-05-10T15:50:00;11.20;71.90
6443;DHT22;3254;47.372;8.512;2023-05-10T15:52:25;10.90;49.20
6443;DHT22;3254;47.372;8.512;2023-05-10T15:54:51;10.80;69.80
6443;DHT22;3254;47.372;8.512;2023-05-10T15:57:17;10.60;76.80
6443;DHT22;3254;47.372;8.512;2023-05-10T15:59:42;10.70;86.10
6443;DHT22;3254;47.372;8.512;2023-05-10T16:02:08;11.00;98.60
6443;DHT22;3254;47.372;8.512;2023-05-10T16:04:35;11.20;99.90
6443;DHT22;3254;47.372;8.512;2023-05-10T16:07:01;11.50;97.90
6443;DHT22;3254;47.372;8.512;2023-05-10T16:09:26;11.60;85.40
6443;DHT22;3254;47.372;8.512;2023-05-10T16:11:52;11.70;85.40
6443;DHT22;3254;47.372;8.512;2023-05-10T16:14:18;11.80;82.40
6443;DHT22;3254;47.372;8.512;2023-05-10T16:16:45;11.90;68.20
6443;DHT22;3254;47.372;8.512;2023-05-10T16:19:11;11.80;52.30
6443;DHT22;3254;47.372;8.512;2023-05-10T16:21:37;11.60;40.20
6443;DHT22;3254;47.372;8.512;2023-05-10T16:24:03;11.60;41.30
6443;DHT22;3254;47.372;8.512;2023-05-10T16:26:29;11.60;44.20